createdAt,value
2019-04-30T00:00:57.708Z,1013.71
2019-04-30T00:01:58.934Z,1013.68
2019-04-30T00:02:57.666Z,1013.69
2019-04-30T00:03:59.331Z,1013.64
2019-04-30T00:04:57.624Z,1013.65
2019-04-30T00:05:57.660Z,1013.65
2019-04-30T00:06:57.578Z,1013.67
2019-04-30T00:07:58.732Z,1013.66
2019-04-30T00:08:57.816Z,1013.61
2019-04-30T00:09:57.753Z,1013.64
2019-04-30T00:10:57.494Z,1013.58
2019-04-30T00:12:01.056Z,1013.57
2019-04-30T00:12:57.456Z,1013.55
2019-04-30T00:13:59.010Z,1013.59
2019-04-30T00:14:57.414Z,1013.54
2019-04-30T00:16:00.327Z,1013.54
2019-04-30T00:16:57.370Z,1013.54
2019-04-30T00:18:01.578Z,1013.54
2019-04-30T00:19:00.477Z,1013.51
2019-04-30T00:19:59.863Z,1013.52
2019-04-30T00:20:57.293Z,1013.47
2019-04-30T00:22:00.295Z,1013.47
2019-04-30T00:22:57.248Z,1013.45
2019-04-30T00:24:00.950Z,1013.46
2019-04-30T00:24:57.208Z,1013.44
2019-04-30T00:25:58.418Z,1013.41
2019-04-30T00:26:57.171Z,1013.42
2019-04-30T00:28:00.347Z,1013.41
2019-04-30T00:28:57.127Z,1013.41
2019-04-30T00:30:00.237Z,1013.40
2019-04-30T00:30:57.086Z,1013.40
2019-04-30T00:32:03.904Z,1013.42
2019-04-30T00:32:57.042Z,1013.40
2019-04-30T00:34:01.141Z,1013.39
2019-04-30T00:34:57.730Z,1013.42
2019-04-30T00:35:58.044Z,1013.41
2019-04-30T00:36:56.959Z,1013.43
2019-04-30T00:38:00.119Z,1013.40
2019-04-30T00:38:56.915Z,1013.41
2019-04-30T00:39:56.897Z,1013.42
2019-04-30T00:40:57.713Z,1013.39
2019-04-30T00:41:56.885Z,1013.38
2019-04-30T00:43:00.265Z,1013.40
2019-04-30T00:43:57.422Z,1013.38
2019-04-30T00:44:59.682Z,1013.38
2019-04-30T00:45:56.769Z,1013.41
2019-04-30T00:47:00.616Z,1013.37
2019-04-30T00:47:56.736Z,1013.43
2019-04-30T00:49:08.547Z,1013.34
2019-04-30T00:50:00.215Z,1013.38
2019-04-30T00:50:56.667Z,1013.34
2019-04-30T00:51:58.173Z,1013.29
2019-04-30T00:52:57.884Z,1013.37
2019-04-30T00:53:56.605Z,1013.32
2019-04-30T00:55:00.335Z,1013.35
2019-04-30T00:55:57.355Z,1013.32
2019-04-30T00:56:59.360Z,1013.36
2019-04-30T00:57:56.522Z,1013.33
2019-04-30T00:58:57.755Z,1013.34
2019-04-30T00:59:56.481Z,1013.32
2019-04-30T01:00:59.812Z,1013.33
2019-04-30T01:01:56.442Z,1013.36
2019-04-30T01:02:56.417Z,1013.37
2019-04-30T01:03:56.400Z,1013.35
2019-04-30T01:05:00.153Z,1013.35
2019-04-30T01:05:56.357Z,1013.30
2019-04-30T01:07:00.319Z,1013.30
2019-04-30T01:07:56.311Z,1013.30
2019-04-30T01:08:58.244Z,1013.29
2019-04-30T01:09:56.274Z,1013.31
2019-04-30T01:10:59.811Z,1013.33
2019-04-30T01:11:56.233Z,1013.28
2019-04-30T01:13:01.836Z,1013.32
2019-04-30T01:13:56.187Z,1013.27
2019-04-30T01:14:56.168Z,1013.26
2019-04-30T01:15:56.150Z,1013.30
2019-04-30T01:16:56.123Z,1013.27
2019-04-30T01:17:56.101Z,1013.30
2019-04-30T01:18:56.081Z,1013.25
2019-04-30T01:19:56.062Z,1013.27
2019-04-30T01:20:56.042Z,1013.22
2019-04-30T01:21:56.020Z,1013.23
2019-04-30T01:22:55.997Z,1013.25
2019-04-30T01:23:55.975Z,1013.21
2019-04-30T01:24:55.976Z,1013.23
2019-04-30T01:25:55.935Z,1013.21
2019-04-30T01:27:02.120Z,1013.24
2019-04-30T01:27:55.892Z,1013.22
2019-04-30T01:28:58.529Z,1013.23
2019-04-30T01:29:55.851Z,1013.21
2019-04-30T01:30:58.809Z,1013.20
2019-04-30T01:31:55.813Z,1013.24
2019-04-30T01:32:56.960Z,1013.22
2019-04-30T01:33:55.770Z,1013.22
2019-04-30T01:34:55.746Z,1013.26
2019-04-30T01:35:55.722Z,1013.27
2019-04-30T01:36:55.706Z,1013.23
2019-04-30T01:37:55.682Z,1013.23
2019-04-30T01:38:55.660Z,1013.22
2019-04-30T01:39:55.638Z,1013.22
2019-04-30T01:40:55.619Z,1013.25
2019-04-30T01:41:55.598Z,1013.18
2019-04-30T01:42:55.580Z,1013.20
2019-04-30T01:43:55.557Z,1013.21
2019-04-30T01:44:55.544Z,1013.17
2019-04-30T01:45:55.520Z,1013.27
2019-04-30T01:46:55.494Z,1013.21
2019-04-30T01:48:00.610Z,1013.17
2019-04-30T01:48:55.450Z,1013.18
2019-04-30T01:49:55.861Z,1013.25
2019-04-30T01:50:55.414Z,1013.17
2019-04-30T01:51:57.447Z,1013.19
2019-04-30T01:52:55.370Z,1013.12
2019-04-30T01:53:55.348Z,1013.15
2019-04-30T01:54:55.340Z,1013.20
2019-04-30T01:55:55.306Z,1013.12
2019-04-30T01:56:55.285Z,1013.13
2019-04-30T01:57:55.270Z,1013.15
2019-04-30T01:58:55.244Z,1013.11
2019-04-30T01:59:55.218Z,1013.12
2019-04-30T02:00:55.200Z,1013.16
2019-04-30T02:01:55.182Z,1013.14
2019-04-30T02:02:55.158Z,1013.15
2019-04-30T02:03:55.132Z,1013.20
2019-04-30T02:04:55.115Z,1013.16
2019-04-30T02:05:55.094Z,1013.15
2019-04-30T02:06:55.075Z,1013.19
2019-04-30T02:07:55.052Z,1013.18
2019-04-30T02:08:55.028Z,1013.16
2019-04-30T02:09:55.007Z,1013.19
2019-04-30T02:10:54.987Z,1013.15
2019-04-30T02:11:54.967Z,1013.12
2019-04-30T02:12:54.944Z,1013.15
2019-04-30T02:13:54.926Z,1013.17
2019-04-30T02:14:54.900Z,1013.11
2019-04-30T02:15:54.882Z,1013.24
2019-04-30T02:16:54.866Z,1013.21
2019-04-30T02:17:54.839Z,1013.22
2019-04-30T02:18:54.817Z,1013.24
2019-04-30T02:19:56.910Z,1013.23
2019-04-30T02:20:54.776Z,1013.23
2019-04-30T02:21:54.757Z,1013.25
2019-04-30T02:22:54.734Z,1013.28
2019-04-30T02:23:54.714Z,1013.26
2019-04-30T02:24:54.691Z,1013.23
2019-04-30T02:25:54.673Z,1013.23
2019-04-30T02:26:54.649Z,1013.23
2019-04-30T02:27:54.632Z,1013.23
2019-04-30T02:28:54.609Z,1013.20
2019-04-30T02:29:54.589Z,1013.21
2019-04-30T02:30:54.563Z,1013.25
2019-04-30T02:31:54.542Z,1013.19
2019-04-30T02:32:54.522Z,1013.22
2019-04-30T02:33:54.504Z,1013.23
2019-04-30T02:34:54.480Z,1013.22
2019-04-30T02:35:54.470Z,1013.19
2019-04-30T02:36:54.435Z,1013.23
2019-04-30T02:37:54.415Z,1013.24
2019-04-30T02:38:54.397Z,1013.23
2019-04-30T02:39:54.382Z,1013.26
2019-04-30T02:40:54.352Z,1013.23
2019-04-30T02:41:54.336Z,1013.23
2019-04-30T02:42:57.746Z,1013.24
2019-04-30T02:43:54.293Z,1013.22
2019-04-30T02:44:54.266Z,1013.23
2019-04-30T02:45:54.248Z,1013.18
2019-04-30T02:46:54.225Z,1013.16
2019-04-30T02:47:54.203Z,1013.22
2019-04-30T02:48:54.186Z,1013.18
2019-04-30T02:50:10.203Z,1013.18
2019-04-30T02:50:54.139Z,1013.20
2019-04-30T02:51:54.115Z,1013.22
2019-04-30T02:52:54.099Z,1013.20
2019-04-30T02:53:54.077Z,1013.17
2019-04-30T02:54:54.051Z,1013.19
2019-04-30T02:55:54.033Z,1013.22
2019-04-30T02:56:54.010Z,1013.22
2019-04-30T02:57:54.046Z,1013.23
2019-04-30T02:58:53.969Z,1013.25
2019-04-30T02:59:53.945Z,1013.24
2019-04-30T03:00:53.927Z,1013.25
2019-04-30T03:01:53.905Z,1013.25
2019-04-30T03:02:53.881Z,1013.26
2019-04-30T03:03:53.863Z,1013.24
2019-04-30T03:04:53.842Z,1013.27
2019-04-30T03:05:53.825Z,1013.31
2019-04-30T03:06:54.406Z,1013.34
2019-04-30T03:07:53.777Z,1013.34
2019-04-30T03:08:53.756Z,1013.31
2019-04-30T03:09:53.739Z,1013.35
2019-04-30T03:10:53.717Z,1013.33
2019-04-30T03:11:53.702Z,1013.36
2019-04-30T03:12:53.676Z,1013.39
2019-04-30T03:13:53.646Z,1013.38
2019-04-30T03:14:53.624Z,1013.37
2019-04-30T03:15:53.610Z,1013.35
2019-04-30T03:16:53.588Z,1013.33
2019-04-30T03:17:53.566Z,1013.34
2019-04-30T03:18:53.564Z,1013.35
2019-04-30T03:19:53.528Z,1013.40
2019-04-30T03:20:53.507Z,1013.40
2019-04-30T03:21:53.479Z,1013.38
2019-04-30T03:22:53.457Z,1013.38
2019-04-30T03:23:53.439Z,1013.42
2019-04-30T03:24:53.416Z,1013.43
2019-04-30T03:25:53.388Z,1013.41
2019-04-30T03:26:53.369Z,1013.38
2019-04-30T03:27:53.356Z,1013.38
2019-04-30T03:28:53.339Z,1013.40
2019-04-30T03:29:53.304Z,1013.39
2019-04-30T03:30:57.464Z,1013.41
2019-04-30T03:31:53.379Z,1013.36
2019-04-30T03:32:56.929Z,1013.40
2019-04-30T03:33:53.228Z,1013.40
2019-04-30T03:34:53.197Z,1013.40
2019-04-30T03:35:54.561Z,1013.41
2019-04-30T03:36:53.153Z,1013.42
2019-04-30T03:37:53.143Z,1013.39
2019-04-30T03:38:53.108Z,1013.39
2019-04-30T03:39:53.089Z,1013.44
2019-04-30T03:40:53.076Z,1013.42
2019-04-30T03:41:53.052Z,1013.45
2019-04-30T03:42:53.020Z,1013.48
2019-04-30T03:43:53.011Z,1013.47
2019-04-30T03:44:52.990Z,1013.45
2019-04-30T03:45:52.959Z,1013.46
2019-04-30T03:46:52.939Z,1013.49
2019-04-30T03:47:52.918Z,1013.43
2019-04-30T03:48:52.900Z,1013.45
2019-04-30T03:49:52.874Z,1013.44
2019-04-30T03:50:56.790Z,1013.48
2019-04-30T03:51:52.829Z,1013.45
2019-04-30T03:52:52.806Z,1013.47
2019-04-30T03:53:52.791Z,1013.47
2019-04-30T03:54:52.767Z,1013.50
2019-04-30T03:55:52.744Z,1013.52
2019-04-30T03:56:52.729Z,1013.54
2019-04-30T03:57:52.698Z,1013.56
2019-04-30T03:58:52.676Z,1013.56
2019-04-30T03:59:52.663Z,1013.55
2019-04-30T04:00:52.638Z,1013.56
2019-04-30T04:01:52.616Z,1013.57
2019-04-30T04:02:52.595Z,1013.61
2019-04-30T04:03:52.577Z,1013.59
2019-04-30T04:04:52.891Z,1013.62
2019-04-30T04:05:52.536Z,1013.63
2019-04-30T04:06:52.510Z,1013.60
2019-04-30T04:07:53.040Z,1013.60
2019-04-30T04:08:52.465Z,1013.60
2019-04-30T04:09:52.448Z,1013.64
2019-04-30T04:10:53.087Z,1013.61
2019-04-30T04:11:52.399Z,1013.65
2019-04-30T04:12:52.380Z,1013.70
2019-04-30T04:13:52.359Z,1013.66
2019-04-30T04:14:52.339Z,1013.63
2019-04-30T04:15:52.317Z,1013.70
2019-04-30T04:16:52.328Z,1013.70
2019-04-30T04:17:52.275Z,1013.69
2019-04-30T04:18:52.255Z,1013.71
2019-04-30T04:19:52.239Z,1013.72
2019-04-30T04:21:07.093Z,1013.68
2019-04-30T04:21:52.188Z,1013.72
2019-04-30T04:22:52.167Z,1013.70
2019-04-30T04:23:52.146Z,1013.69
2019-04-30T04:24:52.124Z,1013.68
2019-04-30T04:25:52.104Z,1013.71
2019-04-30T04:26:52.123Z,1013.67
2019-04-30T04:27:52.068Z,1013.71
2019-04-30T04:28:52.038Z,1013.67
2019-04-30T04:29:52.014Z,1013.74
2019-04-30T04:30:51.999Z,1013.73
2019-04-30T04:31:51.978Z,1013.71
2019-04-30T04:32:51.963Z,1013.69
2019-04-30T04:33:52.768Z,1013.68
2019-04-30T04:34:51.909Z,1013.70
2019-04-30T04:35:51.888Z,1013.69
2019-04-30T04:36:51.868Z,1013.73
2019-04-30T04:37:51.842Z,1013.76
2019-04-30T04:38:51.822Z,1013.74
2019-04-30T04:39:51.817Z,1013.76
2019-04-30T04:40:51.778Z,1013.84
2019-04-30T04:41:51.758Z,1013.81
2019-04-30T04:42:51.735Z,1013.82
2019-04-30T04:43:51.719Z,1013.82
2019-04-30T04:44:51.691Z,1013.84
2019-04-30T04:45:51.667Z,1013.89
2019-04-30T04:46:51.654Z,1013.85
2019-04-30T04:47:51.625Z,1013.89
2019-04-30T04:48:51.605Z,1013.86
2019-04-30T04:49:53.911Z,1013.87
2019-04-30T04:50:51.578Z,1013.84
2019-04-30T04:51:51.545Z,1013.84
2019-04-30T04:52:51.522Z,1013.87
2019-04-30T04:53:51.496Z,1013.89
2019-04-30T04:54:51.482Z,1013.85
2019-04-30T04:55:51.456Z,1013.87
2019-04-30T04:56:54.823Z,1013.84
2019-04-30T04:57:51.414Z,1013.86
2019-04-30T04:58:51.389Z,1013.87
2019-04-30T04:59:51.368Z,1013.86
2019-04-30T05:00:51.350Z,1013.85
2019-04-30T05:01:51.328Z,1013.89
2019-04-30T05:02:51.307Z,1013.88
2019-04-30T05:03:51.287Z,1013.87
2019-04-30T05:04:51.260Z,1013.92
2019-04-30T05:05:51.247Z,1013.89
2019-04-30T05:06:51.222Z,1013.94
2019-04-30T05:07:51.196Z,1013.92
2019-04-30T05:08:51.177Z,1013.90
2019-04-30T05:09:51.193Z,1013.93
2019-04-30T05:10:51.141Z,1013.93
2019-04-30T05:11:51.146Z,1013.92
2019-04-30T05:12:51.181Z,1013.91
2019-04-30T05:13:51.069Z,1013.93
2019-04-30T05:14:51.051Z,1013.95
2019-04-30T05:15:51.524Z,1013.90
2019-04-30T05:16:51.003Z,1013.96
2019-04-30T05:17:50.979Z,1013.98
2019-04-30T05:18:50.959Z,1013.96
2019-04-30T05:19:50.945Z,1013.98
2019-04-30T05:20:50.916Z,1013.96
2019-04-30T05:21:51.724Z,1013.93
2019-04-30T05:22:50.877Z,1013.97
2019-04-30T05:23:50.853Z,1013.97
2019-04-30T05:24:50.835Z,1013.96
2019-04-30T05:25:50.811Z,1013.99
2019-04-30T05:26:50.789Z,1013.98
2019-04-30T05:27:50.770Z,1014.02
2019-04-30T05:28:52.776Z,1014.04
2019-04-30T05:29:50.723Z,1014.04
2019-04-30T05:30:50.703Z,1014.05
2019-04-30T05:31:50.681Z,1014.13
2019-04-30T05:32:50.928Z,1014.06
2019-04-30T05:33:50.643Z,1014.08
2019-04-30T05:34:50.615Z,1014.14
2019-04-30T05:35:50.600Z,1014.11
2019-04-30T05:36:50.575Z,1014.14
2019-04-30T05:37:50.555Z,1014.11
2019-04-30T05:38:50.534Z,1014.08
2019-04-30T05:39:50.509Z,1014.16
2019-04-30T05:40:50.501Z,1014.14
2019-04-30T05:41:50.469Z,1014.17
2019-04-30T05:42:50.448Z,1014.13
2019-04-30T05:43:50.437Z,1014.09
2019-04-30T05:44:50.409Z,1014.13
2019-04-30T05:45:50.384Z,1014.11
2019-04-30T05:46:50.379Z,1014.11
2019-04-30T05:47:50.676Z,1014.12
2019-04-30T05:48:50.324Z,1014.13
2019-04-30T05:49:50.299Z,1014.13
2019-04-30T05:50:51.792Z,1014.13
2019-04-30T05:51:55.604Z,1014.12
2019-04-30T05:52:50.236Z,1014.19
2019-04-30T05:53:50.210Z,1014.14
2019-04-30T05:54:50.196Z,1014.20
2019-04-30T05:55:50.170Z,1014.18
2019-04-30T05:56:50.146Z,1014.15
2019-04-30T05:57:55.971Z,1014.14
2019-04-30T05:58:50.109Z,1014.15
2019-04-30T05:59:50.089Z,1014.18
2019-04-30T06:00:50.118Z,1014.17
2019-04-30T06:01:50.797Z,1014.10
2019-04-30T06:02:50.029Z,1014.11
2019-04-30T06:03:50.006Z,1014.10
2019-04-30T06:04:49.980Z,1014.04
2019-04-30T06:05:49.958Z,1014.05
2019-04-30T06:06:49.946Z,1014.07
2019-04-30T06:07:52.057Z,1014.11
2019-04-30T06:08:49.899Z,1014.14
2019-04-30T06:09:49.879Z,1014.15
2019-04-30T06:10:51.809Z,1014.15
2019-04-30T06:11:49.838Z,1014.17
2019-04-30T06:12:49.812Z,1014.14
2019-04-30T06:13:49.794Z,1014.15
2019-04-30T06:14:51.797Z,1014.15
2019-04-30T06:15:49.752Z,1014.17
2019-04-30T06:16:51.742Z,1014.19
2019-04-30T06:17:59.981Z,1014.13
2019-04-30T06:18:49.695Z,1014.20
2019-04-30T06:19:51.576Z,1014.21
2019-04-30T06:20:49.652Z,1014.25
2019-04-30T06:21:49.629Z,1014.24
2019-04-30T06:22:52.095Z,1014.25
2019-04-30T06:23:49.588Z,1014.30
2019-04-30T06:24:49.621Z,1014.24
2019-04-30T06:25:57.367Z,1014.27
2019-04-30T06:26:49.528Z,1014.27
2019-04-30T06:27:49.507Z,1014.25
2019-04-30T06:28:49.744Z,1014.26
2019-04-30T06:29:49.462Z,1014.28
2019-04-30T06:30:49.446Z,1014.25
2019-04-30T06:31:49.425Z,1014.31
2019-04-30T06:32:49.697Z,1014.29
2019-04-30T06:33:49.383Z,1014.29
2019-04-30T06:34:49.956Z,1014.27
2019-04-30T06:35:49.418Z,1014.24
2019-04-30T06:36:53.354Z,1014.31
2019-04-30T06:37:49.299Z,1014.36
2019-04-30T06:38:49.282Z,1014.29
2019-04-30T06:39:50.102Z,1014.30
2019-04-30T06:40:49.241Z,1014.32
2019-04-30T06:41:49.410Z,1014.23
2019-04-30T06:42:49.651Z,1014.28
2019-04-30T06:43:49.179Z,1014.31
2019-04-30T06:44:49.517Z,1014.28
2019-04-30T06:45:51.254Z,1014.33
2019-04-30T06:46:49.125Z,1014.34
2019-04-30T06:47:49.141Z,1014.37
2019-04-30T06:48:50.886Z,1014.38
2019-04-30T06:49:49.063Z,1014.40
2019-04-30T06:50:49.352Z,1014.41
2019-04-30T06:51:49.300Z,1014.41
2019-04-30T06:52:56.830Z,1014.44
2019-04-30T06:53:51.244Z,1014.45
2019-04-30T06:54:49.840Z,1014.49
2019-04-30T06:55:49.330Z,1014.47
2019-04-30T06:56:48.926Z,1014.45
2019-04-30T06:57:49.654Z,1014.46
2019-04-30T06:58:49.374Z,1014.47
2019-04-30T06:59:51.378Z,1014.47
2019-04-30T07:00:49.660Z,1014.45
2019-04-30T07:01:49.020Z,1014.46
2019-04-30T07:02:49.469Z,1014.50
2019-04-30T07:03:48.851Z,1014.50
2019-04-30T07:04:49.310Z,1014.51
2019-04-30T07:05:48.960Z,1014.53
2019-04-30T07:06:50.467Z,1014.52
2019-04-30T07:07:48.896Z,1014.51
2019-04-30T07:08:55.766Z,1014.53
2019-04-30T07:09:53.149Z,1014.55
2019-04-30T07:10:55.704Z,1014.56
2019-04-30T07:11:49.400Z,1015.96
2019-04-30T07:12:49.128Z,1022.56
2019-04-30T07:13:51.785Z,1031.57
2019-04-30T07:14:49.454Z,1037.09
2019-04-30T07:15:49.048Z,1035.89
2019-04-30T07:16:49.463Z,1034.69
2019-04-30T07:17:49.187Z,1034.42
2019-04-30T07:18:48.996Z,1034.94
2019-04-30T07:19:54.233Z,1035.28
2019-04-30T07:20:48.758Z,1035.87
2019-04-30T07:21:49.598Z,1035.99
2019-04-30T07:23:48.612Z,1036.99
2019-04-30T07:24:49.656Z,1036.79
2019-04-30T07:25:51.403Z,1025.47
2019-04-30T07:26:48.950Z,1014.91
2019-04-30T07:27:50.476Z,1014.71
2019-04-30T07:28:54.222Z,1014.69
2019-04-30T07:29:49.531Z,1016.13
2019-04-30T07:30:51.225Z,1019.63
2019-04-30T07:31:49.027Z,1018.80
2019-04-30T07:32:48.810Z,1014.91
2019-04-30T07:33:53.019Z,1014.72
2019-04-30T07:34:49.546Z,1014.65
2019-04-30T07:35:49.797Z,1014.64
2019-04-30T07:36:55.155Z,1014.65
2019-04-30T07:37:49.768Z,1014.66
2019-04-30T07:38:54.522Z,1014.64
2019-04-30T07:39:49.351Z,1014.67
2019-04-30T07:40:49.341Z,1014.62
2019-04-30T07:41:49.441Z,1014.65
2019-04-30T07:42:49.240Z,1014.70
2019-04-30T07:43:49.409Z,1014.80
2019-04-30T07:44:50.236Z,1018.46
2019-04-30T07:45:49.589Z,1025.38
2019-04-30T07:46:49.330Z,1033.70
2019-04-30T07:47:49.511Z,1039.69
2019-04-30T07:48:50.083Z,1037.03
2019-04-30T07:49:52.939Z,1029.40
2019-04-30T07:50:51.906Z,1022.42
2019-04-30T07:51:51.317Z,1017.23
2019-04-30T07:53:01.620Z,1014.82
2019-04-30T07:53:49.628Z,1014.77
2019-04-30T07:54:51.584Z,1014.78
2019-04-30T07:55:49.416Z,1014.79
2019-04-30T07:56:50.699Z,1014.80
2019-04-30T07:57:50.624Z,1014.79
2019-04-30T07:58:50.271Z,1014.87
2019-04-30T07:59:49.878Z,1014.81
2019-04-30T08:00:50.331Z,1014.87
2019-04-30T08:02:03.296Z,1014.85
2019-04-30T08:02:50.464Z,1014.89
2019-04-30T08:03:50.007Z,1014.88
2019-04-30T08:04:47.893Z,1014.87
2019-04-30T08:05:49.862Z,1014.89
2019-04-30T08:06:49.905Z,1018.98
2019-04-30T08:07:48.961Z,1028.68
2019-04-30T08:08:50.110Z,1031.20
2019-04-30T08:09:34.154Z,1036.29
2019-04-30T08:09:49.308Z,1031.49
2019-04-30T08:10:50.789Z,1031.89
2019-04-30T08:11:49.147Z,1032.29
2019-04-30T08:12:50.454Z,1031.81
2019-04-30T08:13:49.518Z,1030.82
2019-04-30T08:14:49.615Z,1029.68
2019-04-30T08:15:49.551Z,1029.20
2019-04-30T08:16:48.424Z,1028.84
2019-04-30T08:18:02.233Z,1028.84
2019-04-30T08:18:49.228Z,1028.71
2019-04-30T08:19:48.951Z,1027.48
2019-04-30T08:20:49.007Z,1026.81
2019-04-30T08:21:48.601Z,1026.30
2019-04-30T08:22:49.426Z,1024.92
2019-04-30T08:23:48.931Z,1019.02
2019-04-30T08:24:49.161Z,1015.03
2019-04-30T08:25:48.833Z,1014.90
2019-04-30T08:26:49.400Z,1014.88
2019-04-30T08:27:49.263Z,1014.90
2019-04-30T08:28:48.768Z,1014.84
2019-04-30T08:29:49.906Z,1014.88
2019-04-30T08:30:48.975Z,1014.93
2019-04-30T08:31:48.972Z,1014.87
2019-04-30T08:32:49.769Z,1014.87
2019-04-30T08:33:49.074Z,1014.85
2019-04-30T08:34:49.966Z,1014.84
2019-04-30T08:35:49.721Z,1014.82
2019-04-30T08:36:48.936Z,1014.87
2019-04-30T08:37:49.523Z,1014.90
2019-04-30T08:38:49.462Z,1014.83
2019-04-30T08:39:49.505Z,1014.83
2019-04-30T08:40:56.154Z,1014.79
2019-04-30T08:41:49.299Z,1014.83
2019-04-30T08:42:49.581Z,1014.86
2019-04-30T08:43:49.483Z,1014.77
2019-04-30T08:44:48.514Z,1014.83
2019-04-30T08:45:48.865Z,1014.81
2019-04-30T08:46:49.181Z,1014.89
2019-04-30T08:47:49.301Z,1015.02
2019-04-30T08:48:51.658Z,1015.14
2019-04-30T08:49:49.698Z,1015.33
2019-04-30T08:50:49.386Z,1015.39
2019-04-30T08:51:49.217Z,1015.46
2019-04-30T08:52:49.573Z,1015.43
2019-04-30T08:53:48.622Z,1015.42
2019-04-30T08:54:49.433Z,1015.40
2019-04-30T08:55:49.211Z,1015.26
2019-04-30T08:56:47.497Z,1015.16
2019-04-30T08:57:47.484Z,1015.02
2019-04-30T08:58:49.077Z,1014.89
2019-04-30T08:59:49.348Z,1014.82
2019-04-30T09:00:48.625Z,1014.72
2019-04-30T09:01:48.734Z,1014.75
2019-04-30T09:02:49.222Z,1014.69
2019-04-30T09:03:50.933Z,1014.72
2019-04-30T09:04:49.307Z,1014.68
2019-04-30T09:05:47.434Z,1014.66
2019-04-30T09:06:49.018Z,1014.62
2019-04-30T09:07:48.642Z,1014.65
2019-04-30T09:08:48.972Z,1014.70
2019-04-30T09:09:48.813Z,1014.66
2019-04-30T09:10:49.057Z,1014.69
2019-04-30T09:11:53.018Z,1014.68
2019-04-30T09:12:49.517Z,1014.63
2019-04-30T09:13:48.814Z,1014.67
2019-04-30T09:14:49.123Z,1014.71
2019-04-30T09:15:49.149Z,1014.68
2019-04-30T09:16:49.481Z,1014.72
2019-04-30T09:17:58.936Z,1014.80
2019-04-30T09:18:49.342Z,1014.74
2019-04-30T09:19:48.982Z,1014.74
2019-04-30T09:20:49.371Z,1014.78
2019-04-30T09:21:48.838Z,1014.74
2019-04-30T09:22:49.133Z,1014.73
2019-04-30T09:23:51.842Z,1014.75
2019-04-30T09:24:49.532Z,1014.78
2019-04-30T09:25:47.311Z,1014.87
2019-04-30T09:26:49.205Z,1014.93
2019-04-30T09:27:48.813Z,1015.05
2019-04-30T09:28:49.244Z,1015.10
2019-04-30T09:29:49.022Z,1015.22
2019-04-30T09:30:48.449Z,1015.27
2019-04-30T09:31:49.203Z,1015.28
2019-04-30T09:32:47.275Z,1015.34
2019-04-30T09:33:49.137Z,1015.37
2019-04-30T09:34:48.799Z,1015.39
2019-04-30T09:35:47.258Z,1015.45
2019-04-30T09:36:49.002Z,1015.48
2019-04-30T09:37:49.455Z,1015.53
2019-04-30T09:38:48.567Z,1015.54
2019-04-30T09:39:49.250Z,1015.58
2019-04-30T09:40:47.234Z,1015.52
2019-04-30T09:41:47.223Z,1015.48
2019-04-30T09:42:48.745Z,1015.35
2019-04-30T09:43:49.258Z,1015.21
2019-04-30T09:44:49.044Z,1014.91
2019-04-30T09:45:47.202Z,1014.78
2019-04-30T09:46:48.925Z,1014.82
2019-04-30T09:47:47.189Z,1014.78
2019-04-30T09:48:47.186Z,1014.77
2019-04-30T09:49:49.196Z,1014.78
2019-04-30T09:50:49.041Z,1014.79
2019-04-30T09:51:49.198Z,1014.81
2019-04-30T09:52:47.198Z,1014.76
2019-04-30T09:53:56.899Z,1014.75
2019-04-30T09:54:47.276Z,1014.71
2019-04-30T09:55:47.153Z,1014.72
2019-04-30T09:56:49.230Z,1014.66
2019-04-30T09:57:48.819Z,1015.03
2019-04-30T09:58:49.150Z,1015.68
2019-04-30T09:59:48.610Z,1015.91
2019-04-30T10:00:48.497Z,1015.89
2019-04-30T10:01:47.133Z,1015.88
2019-04-30T10:02:48.898Z,1015.97
2019-04-30T10:03:49.926Z,1015.93
2019-04-30T10:04:47.668Z,1016.04
2019-04-30T10:05:48.963Z,1016.00
2019-04-30T10:06:49.903Z,1016.13
2019-04-30T10:07:48.817Z,1016.35
2019-04-30T10:08:50.568Z,1016.54
2019-04-30T10:09:50.691Z,1016.58
2019-04-30T10:10:48.634Z,1016.68
2019-04-30T10:11:49.897Z,1016.88
2019-04-30T10:12:49.173Z,1017.01
2019-04-30T10:13:47.096Z,1017.04
2019-04-30T10:14:47.527Z,1017.10
2019-04-30T10:15:50.021Z,1017.24
2019-04-30T10:16:47.093Z,1017.32
2019-04-30T10:17:47.088Z,1017.33
2019-04-30T10:18:47.084Z,1017.39
2019-04-30T10:19:49.044Z,1017.35
2019-04-30T10:20:47.084Z,1017.34
2019-04-30T10:21:48.982Z,1017.23
2019-04-30T10:22:47.087Z,1017.22
2019-04-30T10:23:47.078Z,1017.22
2019-04-30T10:24:47.076Z,1017.18
2019-04-30T10:25:47.076Z,1017.18
2019-04-30T10:26:47.078Z,1017.12
2019-04-30T10:27:47.086Z,1017.08
2019-04-30T10:28:47.100Z,1017.06
2019-04-30T10:29:47.078Z,1017.09
2019-04-30T10:30:47.072Z,1017.05
2019-04-30T10:31:48.925Z,1017.06
2019-04-30T10:32:49.941Z,1017.03
2019-04-30T10:33:48.557Z,1017.03
2019-04-30T10:34:47.078Z,1017.02
2019-04-30T10:35:47.073Z,1017.10
2019-04-30T10:36:49.348Z,1017.12
2019-04-30T10:37:48.542Z,1017.13
2019-04-30T10:38:47.070Z,1017.06
2019-04-30T10:39:48.969Z,1017.01
2019-04-30T10:40:48.753Z,1016.91
2019-04-30T10:41:47.067Z,1016.82
2019-04-30T10:42:48.770Z,1016.83
2019-04-30T10:43:48.741Z,1016.74
2019-04-30T10:44:47.067Z,1016.66
2019-04-30T10:45:48.545Z,1016.65
2019-04-30T10:46:47.069Z,1016.52
2019-04-30T10:47:49.120Z,1016.40
2019-04-30T10:48:47.072Z,1016.30
2019-04-30T10:49:48.663Z,1016.26
2019-04-30T10:50:49.104Z,1016.20
2019-04-30T10:51:47.069Z,1016.12
2019-04-30T10:52:49.063Z,1016.05
2019-04-30T10:53:48.589Z,1016.00
2019-04-30T10:54:47.072Z,1015.99
2019-04-30T10:55:48.592Z,1015.97
2019-04-30T10:56:49.082Z,1015.97
2019-04-30T10:57:47.072Z,1015.98
2019-04-30T10:58:47.074Z,1015.84
2019-04-30T10:59:48.688Z,1015.83
2019-04-30T11:00:47.073Z,1015.75
2019-04-30T11:01:49.185Z,1015.77
2019-04-30T11:02:47.078Z,1015.73
2019-04-30T11:03:47.074Z,1015.72
2019-04-30T11:04:47.079Z,1015.69
2019-04-30T11:05:48.748Z,1015.58
2019-04-30T11:06:47.080Z,1015.53
2019-04-30T11:07:47.080Z,1015.49
2019-04-30T11:08:47.080Z,1015.48
2019-04-30T11:09:47.081Z,1015.46
2019-04-30T11:10:47.076Z,1015.43
2019-04-30T11:11:47.080Z,1015.35
2019-04-30T11:12:47.084Z,1015.33
2019-04-30T11:13:47.083Z,1015.27
2019-04-30T11:14:47.404Z,1015.27
2019-04-30T11:15:49.091Z,1015.20
2019-04-30T11:16:47.269Z,1015.22
2019-04-30T11:17:47.663Z,1015.22
2019-04-30T11:18:47.360Z,1015.20
2019-04-30T11:19:49.061Z,1015.18
2019-04-30T11:20:47.350Z,1015.14
2019-04-30T11:21:47.241Z,1015.17
2019-04-30T11:22:47.297Z,1015.19
2019-04-30T11:23:49.192Z,1015.17
2019-04-30T11:24:58.971Z,1015.17
2019-04-30T11:25:48.405Z,1015.18
2019-04-30T11:26:49.687Z,1015.16
2019-04-30T11:27:47.953Z,1015.14
2019-04-30T11:28:47.338Z,1015.09
2019-04-30T11:29:49.351Z,1015.08
2019-04-30T11:30:47.424Z,1015.11
2019-04-30T11:31:47.336Z,1015.06
2019-04-30T11:32:47.369Z,1015.03
2019-04-30T11:33:47.468Z,1015.03
2019-04-30T11:34:47.107Z,1015.01
2019-04-30T11:35:47.106Z,1015.04
2019-04-30T11:36:47.110Z,1014.97
2019-04-30T11:37:47.115Z,1014.95
2019-04-30T11:38:48.765Z,1014.95
2019-04-30T11:39:47.113Z,1014.93
2019-04-30T11:40:48.626Z,1014.90
2019-04-30T11:41:47.146Z,1014.92
2019-04-30T11:42:47.122Z,1014.91
2019-04-30T11:43:47.123Z,1014.89
2019-04-30T11:44:48.807Z,1014.89
2019-04-30T11:45:47.123Z,1014.87
2019-04-30T11:46:47.126Z,1014.84
2019-04-30T11:47:53.371Z,1014.78
2019-04-30T11:48:48.880Z,1014.81
2019-04-30T11:49:47.131Z,1014.84
2019-04-30T11:50:47.137Z,1014.79
2019-04-30T11:51:47.141Z,1014.79
2019-04-30T11:52:47.137Z,1014.75
2019-04-30T11:53:48.965Z,1014.70
2019-04-30T11:54:51.662Z,1014.72
2019-04-30T11:55:49.103Z,1014.68
2019-04-30T11:56:50.262Z,1014.70
2019-04-30T11:57:47.145Z,1014.72
2019-04-30T11:58:48.781Z,1014.68
2019-04-30T11:59:47.154Z,1014.62
2019-04-30T12:00:47.155Z,1014.60
2019-04-30T12:01:47.159Z,1014.62
2019-04-30T12:02:50.546Z,1014.60
2019-04-30T12:03:47.161Z,1014.63
2019-04-30T12:04:47.573Z,1014.63
2019-04-30T12:05:49.129Z,1014.59